Time;durP1;ratioP1;P1;durP2;ratioP2;P2;SDS_P1;SDS_P2;PMS_P1;PMS_P2;Temp;Humidity;BMP_temperature;BMP_pressure;BME280_temperature;BME280_humidity;BME280_pressure;Samples;Min_cycle;Max_cycle;Signal;HPM_P1;HPM_P2
2021/12/27 00:01:03;;;;;;;9.75;2.78;;;;;;;-5.21;46.36;100601.94;4989435;28;20026;-72
2021/12/27 00:03:29;;;;;;;5.57;2.65;;;;;;;-4.75;45.48;100607.06;4956171;28;20465;-72
2021/12/27 00:05:54;;;;;;;6.72;3.05;;;;;;;-4.76;45.36;100602.78;4973969;28;20049;-72
2021/12/27 00:08:22;;;;;;;6.88;2.42;;;;;;;-4.74;44.90;100599.44;4968630;28;20538;-73
2021/12/27 00:10:48;;;;;;;6.97;2.70;;;;;;;-4.94;45.08;100593.13;4987690;28;20037;-71
2021/12/27 00:13:13;;;;;;;13.18;3.75;;;;;;;-4.73;44.79;100590.94;4987979;28;20034;-72
2021/12/27 00:15:43;;;;;;;9.13;3.63;;;;;;;-4.85;44.74;100587.34;4987807;28;20044;-70
2021/12/27 00:18:11;;;;;;;6.20;3.05;;;;;;;-4.90;45.37;100582.16;4970906;28;20037;-70
2021/12/27 00:20:37;;;;;;;5.90;2.63;;;;;;;-4.88;45.76;100574.50;4986700;28;20046;-70
2021/12/27 00:23:02;;;;;;;6.45;2.92;;;;;;;-4.72;45.64;100577.38;4988993;28;20029;-70
2021/12/27 00:25:29;;;;;;;9.10;3.25;;;;;;;-4.68;45.58;100578.28;4970046;28;20471;-70
2021/12/27 00:27:56;;;;;;;5.05;2.45;;;;;;;-4.74;45.71;100573.94;4990493;28;20041;-70
2021/12/27 00:30:22;;;;;;;8.05;2.90;;;;;;;-4.73;45.78;100569.69;4990066;28;20038;-70
2021/12/27 00:32:50;;;;;;;10.65;3.42;;;;;;;-4.79;46.03;100549.19;4990312;28;20061;-69
2021/12/27 00:35:18;;;;;;;7.20;2.75;;;;;;;-4.69;45.89;100543.41;4964428;28;20444;-69
2021/12/27 00:37:45;;;;;;;6.43;2.88;;;;;;;-4.71;46.24;100553.59;4974478;28;20030;-70
2021/12/27 00:40:12;;;;;;;5.97;2.63;;;;;;;-4.62;46.07;100550.34;4988839;28;20053;-70
2021/12/27 00:42:38;;;;;;;9.43;3.22;;;;;;;-4.72;46.51;100546.78;4982510;28;20026;-70
2021/12/27 00:45:04;;;;;;;7.82;3.55;;;;;;;-4.56;46.13;100547.03;4973363;28;20034;-70
2021/12/27 00:47:30;;;;;;;10.45;3.03;;;;;;;-4.50;45.87;100542.03;4990553;28;20022;-70
2021/12/27 00:49:56;;;;;;;8.82;2.75;;;;;;;-4.62;46.36;100536.72;4989409;28;20045;-70
2021/12/27 00:52:21;;;;;;;7.55;2.67;;;;;;;-4.52;46.05;100533.53;4990716;28;20038;-71
2021/12/27 00:54:47;;;;;;;6.07;2.83;;;;;;;-4.58;46.35;100536.81;4988195;28;20399;-70
2021/12/27 00:57:17;;;;;;;8.25;3.45;;;;;;;-4.37;45.79;100523.53;4991998;28;20112;-70
2021/12/27 00:59:42;;;;;;;4.40;1.92;;;;;;;-4.46;45.83;100518.28;4988590;28;20057;-70
2021/12/27 01:02:10;;;;;;;9.82;2.88;;;;;;;-4.44;45.68;100516.63;4992478;28;20026;-70
2021/12/27 01:04:36;;;;;;;6.10;3.30;;;;;;;-4.59;45.83;100511.28;4989632;28;20045;-70
2021/12/27 01:07:01;;;;;;;6.28;3.08;;;;;;;-4.74;46.20;100510.19;4989260;28;20048;-70
2021/12/27 01:09:51;;;;;;;9.93;3.10;;;;;;;-4.69;46.17;100519.63;4974803;28;20173;-70
2021/12/27 01:15:08;;;;;;;13.32;3.53;;;;;;;-4.71;46.68;100511.94;4990037;28;20057;-71
2021/12/27 01:17:35;;;;;;;10.43;2.92;;;;;;;-4.75;46.83;100515.25;4990303;28;20085;-71
2021/12/27 01:20:03;;;;;;;9.65;3.45;;;;;;;-4.71;46.54;100512.78;4987284;28;22620;-70
2021/12/27 01:22:28;;;;;;;9.93;3.60;;;;;;;-4.95;47.39;100503.03;4990954;28;20030;-70
2021/12/27 01:24:58;;;;;;;6.40;3.55;;;;;;;-4.77;47.30;100507.59;4988596;28;20128;-70
2021/12/27 01:27:24;;;;;;;7.25;3.70;;;;;;;-4.62;46.85;100496.78;4993397;28;20073;-70
2021/12/27 01:29:49;;;;;;;7.38;3.60;;;;;;;-4.62;47.00;100495.94;4987852;28;20065;-70
2021/12/27 01:32:15;;;;;;;5.40;2.85;;;;;;;-4.44;46.36;100496.22;4990688;28;20046;-70
2021/12/27 01:34:40;;;;;;;8.27;3.67;;;;;;;-4.52;46.63;100495.25;4988138;28;20034;-70
2021/12/27 01:37:06;;;;;;;7.28;3.05;;;;;;;-4.54;46.71;100490.13;4989888;28;20484;-70
2021/12/27 01:39:32;;;;;;;15.23;3.78;;;;;;;-4.64;46.74;100498.44;4987167;28;20066;-70
2021/12/27 01:41:59;;;;;;;9.77;3.90;;;;;;;-4.47;46.47;100488.53;4990137;28;20125;-70
2021/12/27 01:44:25;;;;;;;7.60;3.08;;;;;;;-4.24;45.84;100482.91;4989769;28;20078;-69
2021/12/27 01:46:52;;;;;;;9.25;4.30;;;;;;;-4.41;45.99;100490.28;4988350;28;20651;-70
2021/12/27 01:49:18;;;;;;;7.97;3.15;;;;;;;-4.37;45.97;100494.63;4972715;28;20444;-70
2021/12/27 01:51:44;;;;;;;3.63;2.28;;;;;;;-4.34;45.77;100499.78;4974662;28;20030;-70
2021/12/27 01:54:10;;;;;;;10.52;3.40;;;;;;;-4.51;46.27;100499.50;4991952;28;20065;-70
2021/12/27 01:56:36;;;;;;;4.95;3.17;;;;;;;-4.43;45.57;100503.03;4961916;28;20042;-68
2021/12/27 01:59:02;;;;;;;5.80;2.72;;;;;;;-4.29;45.53;100500.69;4990076;28;20042;-69
2021/12/27 02:01:27;;;;;;;7.47;3.25;;;;;;;-4.26;45.71;100499.88;4989038;28;20046;-69
2021/12/27 02:03:54;;;;;;;9.15;4.28;;;;;;;-4.36;45.67;100499.75;4976219;28;20038;-69
2021/12/27 02:06:20;;;;;;;7.53;3.10;;;;;;;-4.41;46.07;100496.28;4989588;28;20045;-70
2021/12/27 02:08:46;;;;;;;5.93;3.08;;;;;;;-4.42;46.10;100494.53;4989702;28;20126;-69
2021/12/27 02:11:15;;;;;;;5.65;3.10;;;;;;;-4.19;45.57;100487.22;4990094;28;20128;-69
2021/12/27 02:13:44;;;;;;;8.93;3.90;;;;;;;-4.15;45.76;100483.88;4988262;28;20117;-69
2021/12/27 02:16:15;;;;;;;9.25;4.43;;;;;;;-4.22;45.87;100482.09;4988420;28;20072;-69
2021/12/27 02:18:41;;;;;;;7.28;4.00;;;;;;;-4.26;46.09;100476.91;4986585;28;20117;-69
2021/12/27 02:21:07;;;;;;;5.90;2.95;;;;;;;-4.14;45.84;100479.66;4988953;28;20121;-69
2021/12/27 02:23:33;;;;;;;5.65;2.70;;;;;;;-4.20;45.92;100474.47;4979453;28;20545;-71
2021/12/27 02:25:59;;;;;;;6.18;2.97;;;;;;;-4.04;45.84;100478.09;4989295;28;20349;-69
2021/12/27 02:28:25;;;;;;;7.85;3.17;;;;;;;-3.99;45.69;100468.78;4986521;28;20025;-69
2021/12/27 02:30:53;;;;;;;6.75;3.10;;;;;;;-4.24;46.31;100477.81;4987700;28;20034;-69
2021/12/27 02:33:18;;;;;;;8.07;3.38;;;;;;;-4.44;46.90;100486.00;4987294;28;20044;-69
2021/12/27 02:35:55;;;;;;;5.93;2.60;;;;;;;-4.09;46.26;100478.03;4988802;28;20062;-69
2021/12/27 02:38:24;;;;;;;7.72;4.15;;;;;;;-4.12;46.57;100462.66;4987397;28;20033;-69
2021/12/27 02:40:51;;;;;;;8.98;3.55;;;;;;;-4.25;46.99;100471.00;4977387;28;20073;-68
2021/12/27 02:43:19;;;;;;;9.27;3.85;;;;;;;-4.47;47.46;100473.22;4979259;28;20037;-68
2021/12/27 02:46:10;;;;;;;7.05;3.13;;;;;;;-4.48;47.31;100479.13;4988623;28;20131;-70
2021/12/27 02:48:41;;;;;;;9.40;3.83;;;;;;;-4.69;48.20;100466.06;4985347;28;20069;-69
2021/12/27 02:51:08;;;;;;;6.97;2.63;;;;;;;-4.47;47.69;100460.47;4990905;28;20096;-71
2021/12/27 02:53:34;;;;;;;10.00;3.60;;;;;;;-4.53;47.74;100458.66;4987507;28;20085;-71
2021/12/27 02:56:01;;;;;;;11.07;2.75;;;;;;;-4.36;47.43;100461.47;4976520;28;20034;-71
2021/12/27 02:58:27;;;;;;;6.07;3.10;;;;;;;-4.19;47.10;100453.19;4971333;28;20038;-70
2021/12/27 03:01:04;;;;;;;5.90;2.63;;;;;;;-4.10;46.72;100451.66;4977767;28;20042;-70
2021/12/27 03:03:29;;;;;;;7.57;3.20;;;;;;;-4.09;46.78;100452.50;4984210;28;20052;-71
2021/12/27 03:06:00;;;;;;;7.22;3.50;;;;;;;-4.12;46.95;100435.44;4988927;28;20505;-71
2021/12/27 03:08:26;;;;;;;9.30;2.92;;;;;;;-4.17;47.08;100424.31;4986969;28;20468;-70
2021/12/27 03:10:55;;;;;;;10.95;3.97;;;;;;;-4.27;47.09;100417.38;4989704;28;20048;-71
2021/12/27 03:13:37;;;;;;;6.97;3.33;;;;;;;-4.33;47.60;100418.13;4986660;28;20715;-71
2021/12/27 03:16:09;;;;;;;6.90;3.13;;;;;;;-4.66;48.18;100415.09;4983159;28;20149;-71
2021/12/27 03:18:37;;;;;;;7.50;3.33;;;;;;;-4.30;47.45;100413.09;4969867;28;20104;-70
2021/12/27 03:21:05;;;;;;;12.18;3.38;;;;;;;-4.33;47.53;100418.13;4988171;28;20038;-68
2021/12/27 03:23:32;;;;;;;6.07;3.50;;;;;;;-4.14;47.07;100411.59;4986653;28;20125;-68
2021/12/27 03:25:58;;;;;;;10.43;3.72;;;;;;;-4.37;47.60;100403.63;4986184;28;20102;-69
2021/12/27 03:28:24;;;;;;;6.55;3.03;;;;;;;-4.29;47.50;100406.28;4987449;28;20358;-68
2021/12/27 03:30:50;;;;;;;8.05;3.88;;;;;;;-3.96;46.88;100393.09;4987762;28;20686;-68
2021/12/27 03:33:17;;;;;;;6.88;2.97;;;;;;;-4.37;47.48;100385.75;4977964;28;20080;-68
2021/12/27 03:35:52;;;;;;;7.43;3.53;;;;;;;-4.31;47.64;100395.19;4985234;28;20061;-68
2021/12/27 03:38:20;;;;;;;5.40;3.72;;;;;;;-4.04;47.24;100399.81;4986213;28;20038;-69
2021/12/27 03:40:48;;;;;;;7.10;3.55;;;;;;;-4.01;47.03;100389.66;4988248;28;20088;-70
2021/12/27 03:43:13;;;;;;;7.63;3.58;;;;;;;-4.21;47.28;100393.63;4986680;28;20043;-69
2021/12/27 03:45:40;;;;;;;10.13;3.47;;;;;;;-4.09;46.92;100391.25;4986070;28;20037;-70
2021/12/27 03:48:08;;;;;;;6.65;3.05;;;;;;;-4.04;46.96;100392.13;4987549;28;20042;-70
2021/12/27 03:50:35;;;;;;;8.63;3.13;;;;;;;-4.57;48.05;100398.25;4968065;28;20030;-69
2021/12/27 03:53:01;;;;;;;9.18;4.25;;;;;;;-4.15;47.37;100397.09;4984883;28;20050;-69
2021/12/27 03:55:27;;;;;;;11.50;3.67;;;;;;;-3.91;47.04;100396.56;4972299;28;20129;-72
2021/12/27 03:57:56;;;;;;;9.25;3.42;;;;;;;-3.76;46.25;100400.16;4987445;28;20522;-71
2021/12/27 04:02:55;;;;;;;10.98;4.60;;;;;;;-4.01;47.01;100381.09;4987455;28;20074;-71
2021/12/27 04:05:24;;;;;;;9.30;4.00;;;;;;;-3.92;46.78;100388.88;4991140;28;20048;-70
2021/12/27 04:07:59;;;;;;;7.25;3.80;;;;;;;-4.01;46.95;100388.75;4981354;28;20337;-71
2021/12/27 04:10:26;;;;;;;13.35;3.90;;;;;;;-4.02;47.35;100384.50;4992306;28;20061;-68
2021/12/27 04:12:51;;;;;;;9.60;3.78;;;;;;;-4.18;47.68;100370.72;4990390;28;20507;-69
2021/12/27 04:15:21;;;;;;;10.93;3.85;;;;;;;-3.91;47.34;100372.72;4992082;28;20033;-69
2021/12/27 04:17:47;;;;;;;7.43;3.47;;;;;;;-3.88;47.05;100360.84;4980391;28;20034;-70
2021/12/27 04:20:12;;;;;;;7.43;3.00;;;;;;;-4.12;47.76;100346.13;4990702;28;20061;-69
2021/12/27 04:22:38;;;;;;;5.53;3.17;;;;;;;-4.05;47.25;100348.72;4976404;28;20045;-69
2021/12/27 04:25:06;;;;;;;6.60;3.42;;;;;;;-3.65;46.44;100344.03;4992472;28;20038;-68
2021/12/27 04:27:31;;;;;;;11.30;4.20;;;;;;;-3.77;46.78;100353.28;4986384;28;20049;-70
2021/12/27 04:29:57;;;;;;;9.13;4.03;;;;;;;-3.72;46.65;100355.91;4992957;28;20535;-69
2021/12/27 04:32:22;;;;;;;13.45;4.05;;;;;;;-3.84;46.92;100356.63;4988112;28;20115;-69
2021/12/27 04:34:48;;;;;;;9.18;3.65;;;;;;;-3.80;46.78;100358.38;4978428;28;20299;-69
2021/12/27 04:37:13;;;;;;;9.07;3.90;;;;;;;-4.20;47.64;100370.69;4978963;28;20046;-69
2021/12/27 04:39:39;;;;;;;10.60;4.25;;;;;;;-3.99;47.23;100366.66;4976658;28;20030;-69
2021/12/27 04:42:07;;;;;;;7.78;3.10;;;;;;;-3.66;46.74;100366.19;4974325;28;20049;-69
2021/12/27 04:44:32;;;;;;;9.90;4.20;;;;;;;-3.59;46.50;100357.72;4964305;28;20030;-69
2021/12/27 04:46:58;;;;;;;7.82;3.83;;;;;;;-3.78;46.95;100361.81;4980234;28;20052;-69
2021/12/27 04:49:23;;;;;;;8.07;3.95;;;;;;;-3.81;46.92;100371.13;4991226;28;20383;-69
2021/12/27 04:51:49;;;;;;;12.38;4.47;;;;;;;-3.82;47.33;100371.97;4989838;28;20524;-69
2021/12/27 04:54:14;;;;;;;7.18;3.30;;;;;;;-3.68;46.69;100358.50;4990626;28;20065;-69
2021/12/27 04:56:40;;;;;;;11.98;4.40;;;;;;;-3.78;47.15;100346.50;4967367;28;20041;-71
2021/12/27 04:59:08;;;;;;;9.13;3.53;;;;;;;-3.66;46.73;100327.88;4968516;28;20511;-71
2021/12/27 05:01:33;;;;;;;12.07;4.22;;;;;;;-4.01;47.26;100336.03;4981013;28;20026;-71
2021/12/27 05:03:58;;;;;;;10.50;3.78;;;;;;;-3.61;46.57;100344.09;4989678;28;20037;-71
2021/12/27 05:06:24;;;;;;;12.18;4.45;;;;;;;-3.78;46.60;100335.44;4988088;28;20038;-71
2021/12/27 05:08:53;;;;;;;8.95;3.95;;;;;;;-3.74;46.40;100343.13;4990398;28;20037;-71
2021/12/27 05:11:19;;;;;;;6.05;3.60;;;;;;;-4.01;46.98;100338.59;4977416;28;20092;-71
2021/12/27 05:13:44;;;;;;;10.90;3.50;;;;;;;-3.88;46.89;100324.25;4988193;28;20034;-72
2021/12/27 05:16:10;;;;;;;11.77;5.20;;;;;;;-3.82;46.62;100329.41;4991439;28;20042;-70
2021/12/27 05:18:35;;;;;;;10.38;4.13;;;;;;;-3.81;46.64;100330.28;4989268;28;20069;-71
2021/12/27 05:21:01;;;;;;;6.60;3.15;;;;;;;-3.72;46.82;100322.69;4975574;28;20068;-70
2021/12/27 05:23:26;;;;;;;9.07;4.43;;;;;;;-3.96;47.16;100334.38;4990683;28;20065;-72
2021/12/27 05:25:52;;;;;;;8.10;4.30;;;;;;;-3.71;46.69;100322.72;4974880;28;20038;-72
2021/12/27 05:28:18;;;;;;;12.45;4.15;;;;;;;-4.03;46.84;100318.97;4976198;28;20088;-72
2021/12/27 05:30:47;;;;;;;10.02;4.75;;;;;;;-3.64;46.42;100310.00;4988100;28;20041;-72
2021/12/27 05:33:13;;;;;;;8.45;4.38;;;;;;;-3.93;47.40;100315.69;4976971;28;20041;-68
2021/12/27 05:35:39;;;;;;;10.80;3.97;;;;;;;-3.94;46.94;100314.84;4989017;28;20030;-69
2021/12/27 05:38:07;;;;;;;10.68;3.80;;;;;;;-3.90;47.06;100306.38;4990229;28;20134;-69
2021/12/27 05:40:32;;;;;;;16.00;4.63;;;;;;;-4.32;47.96;100302.50;4989153;28;20030;-71
2021/12/27 05:42:58;;;;;;;9.60;4.68;;;;;;;-4.23;47.84;100317.06;4973974;28;20369;-71
2021/12/27 05:45:27;;;;;;;10.55;4.28;;;;;;;-4.40;48.16;100306.63;4988569;28;20030;-71
2021/12/27 05:47:52;;;;;;;9.95;4.78;;;;;;;-4.00;47.24;100308.81;4988813;28;20045;-70
2021/12/27 05:50:18;;;;;;;9.77;3.33;;;;;;;-4.10;47.41;100303.59;4990026;28;20080;-71
2021/12/27 05:52:45;;;;;;;9.63;4.15;;;;;;;-4.09;47.41;100295.09;4988978;28;20481;-71
2021/12/27 05:55:11;;;;;;;8.38;4.05;;;;;;;-4.19;47.70;100288.16;4982058;28;20083;-71
2021/12/27 05:57:37;;;;;;;8.77;3.45;;;;;;;-4.02;47.28;100284.94;4978510;28;20053;-71
2021/12/27 06:00:09;;;;;;;8.30;3.83;;;;;;;-4.00;47.14;100280.72;4992233;28;20068;-71
2021/12/27 06:02:42;;;;;;;13.32;4.60;;;;;;;-4.30;47.82;100285.50;4980153;28;20045;-71
2021/12/27 06:05:07;;;;;;;9.50;4.20;;;;;;;-3.96;47.05;100280.78;4989859;28;20038;-70
2021/12/27 06:07:33;;;;;;;9.15;3.50;;;;;;;-4.30;47.57;100280.41;4988718;28;20378;-70
2021/12/27 06:10:01;;;;;;;13.05;4.45;;;;;;;-4.17;47.39;100271.16;4972658;28;20050;-71
2021/12/27 06:12:26;;;;;;;13.02;4.30;;;;;;;-4.25;47.45;100275.34;4986093;28;20388;-71
2021/12/27 06:14:52;;;;;;;9.38;4.38;;;;;;;-4.53;48.19;100272.47;4990087;28;20049;-69
2021/12/27 06:17:17;;;;;;;7.80;4.20;;;;;;;-4.36;47.96;100275.22;4989791;28;20041;-71
2021/12/27 06:19:45;;;;;;;6.88;3.45;;;;;;;-4.46;48.12;100270.84;4980294;28;20026;-71
2021/12/27 06:22:13;;;;;;;9.10;4.15;;;;;;;-4.31;47.96;100276.13;4977845;28;20093;-71
2021/12/27 06:24:41;;;;;;;9.48;4.60;;;;;;;-4.10;47.52;100272.09;4970682;28;20030;-71
2021/12/27 06:27:09;;;;;;;11.25;4.28;;;;;;;-4.38;48.06;100271.78;4988596;28;20033;-68
2021/12/27 06:29:35;;;;;;;10.88;4.03;;;;;;;-4.30;47.66;100285.50;4969956;28;20401;-68
2021/12/27 06:32:00;;;;;;;9.73;3.85;;;;;;;-4.39;48.07;100274.31;4988602;28;20053;-68
2021/12/27 06:34:26;;;;;;;15.27;4.15;;;;;;;-4.22;47.53;100266.88;4987151;28;20488;-68
2021/12/27 06:36:51;;;;;;;15.48;4.47;;;;;;;-4.31;47.64;100268.47;4978951;28;20596;-70
2021/12/27 06:39:17;;;;;;;11.85;5.30;;;;;;;-4.28;47.91;100271.91;4971655;28;20049;-71
2021/12/27 06:41:42;;;;;;;8.10;4.65;;;;;;;-4.22;48.01;100280.47;4987662;28;20026;-70
2021/12/27 06:44:08;;;;;;;12.18;5.75;;;;;;;-4.35;48.30;100276.91;4978376;28;20026;-68
2021/12/27 06:46:33;;;;;;;15.43;4.13;;;;;;;-4.25;48.15;100282.16;4989622;28;20037;-70
2021/12/27 06:48:59;;;;;;;9.43;3.97;;;;;;;-4.01;47.53;100279.88;4979358;28;20061;-70
2021/12/27 06:51:24;;;;;;;8.20;4.60;;;;;;;-4.27;48.04;100289.78;4985743;28;20057;-70
2021/12/27 06:53:49;;;;;;;8.32;4.15;;;;;;;-4.40;48.27;100283.69;4986100;28;20045;-70
2021/12/27 06:56:15;;;;;;;9.93;4.50;;;;;;;-4.14;47.79;100280.59;4990098;28;20257;-72
2021/12/27 06:58:41;;;;;;;7.95;4.45;;;;;;;-3.98;47.63;100279.03;4987304;28;20088;-71
2021/12/27 07:01:07;;;;;;;11.30;5.18;;;;;;;-4.00;47.56;100273.91;4988095;28;20061;-71
2021/12/27 07:03:35;;;;;;;11.98;4.85;;;;;;;-4.16;48.08;100261.84;4987093;28;20030;-72
2021/12/27 07:06:00;;;;;;;10.23;4.72;;;;;;;-4.10;47.64;100267.88;4969567;28;20065;-73
2021/12/27 07:08:26;;;;;;;6.68;3.75;;;;;;;-4.06;47.63;100270.44;4986971;28;20423;-72
2021/12/27 07:10:53;;;;;;;14.07;5.75;;;;;;;-3.95;47.28;100267.16;4974608;28;20046;-73
2021/12/27 07:13:18;;;;;;;8.25;4.13;;;;;;;-3.97;47.74;100268.81;4987435;28;20058;-73
2021/12/27 07:15:45;;;;;;;8.88;4.53;;;;;;;-4.04;47.61;100267.06;4987945;28;20456;-73
2021/12/27 07:18:12;;;;;;;9.75;4.80;;;;;;;-4.23;48.32;100271.13;4984773;28;20303;-73
2021/12/27 07:20:38;;;;;;;10.00;5.18;;;;;;;-4.41;48.65;100276.88;4978448;28;20026;-73
2021/12/27 07:23:05;;;;;;;13.27;5.07;;;;;;;-4.00;47.89;100267.97;4961235;28;20489;-73
2021/12/27 07:25:30;;;;;;;10.77;4.72;;;;;;;-4.26;48.70;100275.31;4988976;28;20078;-72
2021/12/27 07:27:56;;;;;;;15.20;5.97;;;;;;;-4.31;49.00;100272.72;4978272;28;20046;-72
2021/12/27 07:30:22;;;;;;;12.30;4.72;;;;;;;-4.34;48.98;100267.59;4963876;28;20040;-72
2021/12/27 07:32:55;;;;;;;7.78;4.35;;;;;;;-4.18;48.64;100258.41;4979193;28;20046;-73
2021/12/27 07:35:21;;;;;;;12.32;4.22;;;;;;;-4.12;48.52;100267.00;4988546;28;20160;-73
2021/12/27 07:37:47;;;;;;;9.32;5.00;;;;;;;-3.79;48.07;100267.31;4967307;28;20141;-73
2021/12/27 07:40:12;;;;;;;11.07;5.32;;;;;;;-3.83;47.93;100270.66;4970615;28;20079;-73
2021/12/27 07:42:38;;;;;;;10.32;5.10;;;;;;;-4.02;48.10;100275.59;4987361;28;20050;-72
2021/12/27 07:45:04;;;;;;;9.07;4.70;;;;;;;-4.07;48.38;100264.47;4971753;28;20052;-72
2021/12/27 07:47:29;;;;;;;13.35;5.97;;;;;;;-3.93;48.13;100268.03;4972903;28;20039;-73
2021/12/27 07:49:57;;;;;;;11.18;5.00;;;;;;;-3.92;48.32;100261.22;4987242;28;20516;-73
2021/12/27 07:52:25;;;;;;;19.20;7.30;;;;;;;-4.01;48.72;100264.56;4985331;28;20523;-73
2021/12/27 07:54:53;;;;;;;12.75;6.53;;;;;;;-3.65;47.97;100268.31;4986857;28;20617;-73
2021/12/27 07:57:18;;;;;;;14.48;5.63;;;;;;;-3.88;48.29;100268.06;4987205;28;20111;-73
2021/12/27 07:59:47;;;;;;;11.25;5.75;;;;;;;-3.89;48.50;100267.22;4987038;28;20243;-74
2021/12/27 08:02:14;;;;;;;12.13;5.03;;;;;;;-3.97;48.96;100267.97;4990584;28;20501;-74
2021/12/27 08:04:40;;;;;;;15.63;6.22;;;;;;;-3.61;48.02;100257.25;4974129;28;20041;-75
2021/12/27 08:07:06;;;;;;;13.90;5.80;;;;;;;-3.73;48.14;100258.00;4990969;28;20109;-74
2021/12/27 08:09:32;;;;;;;15.15;6.93;;;;;;;-3.92;48.73;100261.22;4988181;28;20419;-73
2021/12/27 08:11:57;;;;;;;16.67;5.20;;;;;;;-3.91;48.79;100268.91;4988576;28;20117;-70
2021/12/27 08:14:23;;;;;;;13.57;5.90;;;;;;;-3.73;48.52;100262.25;4977313;28;20042;-70
2021/12/27 08:16:48;;;;;;;15.82;5.88;;;;;;;-3.59;48.26;100259.81;4968750;28;20215;-70
2021/12/27 08:19:14;;;;;;;13.20;5.95;;;;;;;-3.69;48.64;100271.66;4987799;28;20038;-70
2021/12/27 08:21:40;;;;;;;12.38;5.95;;;;;;;-3.72;48.46;100263.94;4985997;28;20084;-70
2021/12/27 08:24:06;;;;;;;14.85;6.82;;;;;;;-3.72;48.44;100249.50;4986456;28;20037;-71
2021/12/27 08:26:31;;;;;;;18.55;7.20;;;;;;;-3.64;48.56;100246.16;4957600;28;20451;-71
2021/12/27 08:29:01;;;;;;;14.98;6.18;;;;;;;-3.42;47.94;100244.63;4978412;28;20054;-70
2021/12/27 08:31:27;;;;;;;18.05;6.57;;;;;;;-3.60;48.45;100246.19;4987135;28;22609;-70
2021/12/27 08:33:52;;;;;;;18.08;6.90;;;;;;;-3.72;48.75;100240.97;4987216;28;20048;-70
2021/12/27 08:36:19;;;;;;;13.23;6.45;;;;;;;-3.58;48.50;100236.84;4970282;28;20201;-70
2021/12/27 08:38:47;;;;;;;15.25;7.82;;;;;;;-3.95;49.72;100236.50;4987775;28;20045;-70
2021/12/27 08:41:13;;;;;;;14.23;7.10;;;;;;;-3.58;48.88;100241.97;4988255;28;20038;-70
2021/12/27 08:43:39;;;;;;;17.13;6.72;;;;;;;-3.52;48.96;100242.00;4987597;28;20042;-70
2021/12/27 08:46:08;;;;;;;20.70;7.68;;;;;;;-3.88;49.71;100238.28;4985490;28;20067;-71
2021/12/27 08:48:36;;;;;;;20.08;7.10;;;;;;;-3.55;49.38;100236.00;4985510;28;20132;-70
2021/12/27 08:51:03;;;;;;;17.67;6.38;;;;;;;-3.39;48.74;100235.28;4973886;28;20081;-70
2021/12/27 08:53:29;;;;;;;16.90;7.53;;;;;;;-3.48;49.06;100243.72;4987745;28;20046;-70
2021/12/27 08:55:55;;;;;;;15.57;6.68;;;;;;;-3.68;49.67;100242.72;4974888;28;20091;-71
2021/12/27 08:58:23;;;;;;;17.98;7.07;;;;;;;-3.23;48.55;100243.91;4981196;28;20105;-70
2021/12/27 09:00:49;;;;;;;16.42;6.70;;;;;;;-3.55;49.28;100241.13;4989758;28;20026;-70
2021/12/27 09:03:17;;;;;;;18.60;6.47;;;;;;;-3.45;49.23;100237.81;4991507;28;20034;-70
2021/12/27 09:05:43;;;;;;;16.65;7.82;;;;;;;-3.19;48.61;100248.19;4991339;28;20045;-70
2021/12/27 09:08:11;;;;;;;21.27;7.47;;;;;;;-3.43;49.37;100245.47;4990905;28;20237;-71
2021/12/27 09:10:37;;;;;;;17.40;7.53;;;;;;;-3.19;48.86;100255.00;4990515;28;20153;-70
2021/12/27 09:13:05;;;;;;;14.80;7.30;;;;;;;-3.21;48.72;100256.69;4980452;28;20536;-70
2021/12/27 09:15:31;;;;;;;14.65;6.88;;;;;;;-3.41;49.32;100259.94;4972079;28;20065;-70
2021/12/27 09:17:57;;;;;;;10.98;6.28;;;;;;;-3.48;49.60;100248.84;4971642;28;20125;-69
2021/12/27 09:20:26;;;;;;;22.85;6.80;;;;;;;-3.28;49.23;100246.44;4978506;28;20026;-70
2021/12/27 09:22:52;;;;;;;18.67;7.20;;;;;;;-3.32;49.23;100247.28;4976679;28;20049;-70
2021/12/27 09:25:18;;;;;;;18.27;6.72;;;;;;;-3.41;49.63;100248.88;4986269;28;20030;-70
2021/12/27 09:27:43;;;;;;;24.38;7.80;;;;;;;-3.25;49.69;100248.13;4986519;28;20033;-70
2021/12/27 09:30:10;;;;;;;14.60;7.35;;;;;;;-3.44;49.85;100243.75;4971199;28;20034;-70
2021/12/27 09:32:36;;;;;;;18.85;7.75;;;;;;;-3.60;50.28;100238.53;4986250;28;20068;-71
2021/12/27 09:35:03;;;;;;;10.02;6.30;;;;;;;-3.29;49.64;100244.72;4989226;28;20105;-70
2021/12/27 09:37:29;;;;;;;19.90;8.25;;;;;;;-3.23;49.23;100233.66;4985923;28;20049;-70
2021/12/27 09:39:54;;;;;;;15.52;6.90;;;;;;;-3.05;49.04;100238.91;4987598;28;20034;-70
2021/12/27 09:42:26;;;;;;;15.73;7.03;;;;;;;-3.28;49.49;100232.78;4988211;28;20133;-70
2021/12/27 09:44:53;;;;;;;;;;;;;;;-3.23;49.50;100243.06;4987379;28;20100;-70
2021/12/27 09:47:19;;;;;;;14.50;7.13;;;;;;;-3.25;49.89;100235.34;4989253;28;19921;-70
2021/12/27 09:49:46;;;;;;;18.17;8.18;;;;;;;-3.35;50.23;100228.50;4986815;28;20052;-70
2021/12/27 09:52:13;;;;;;;19.98;7.30;;;;;;;-3.60;50.81;100230.88;4985687;28;20186;-70
2021/12/27 09:54:39;;;;;;;14.95;7.20;;;;;;;-3.57;50.69;100233.44;4986022;28;20040;-70
2021/12/27 09:57:05;;;;;;;17.13;7.65;;;;;;;-3.14;49.80;100228.66;4988025;28;20133;-71
2021/12/27 09:59:31;;;;;;;16.92;8.88;;;;;;;-3.32;50.18;100226.81;4986717;28;20188;-71
2021/12/27 10:01:58;;;;;;;23.15;8.00;;;;;;;-3.29;50.45;100223.44;4987102;28;20061;-71
2021/12/27 10:04:24;;;;;;;20.70;9.13;;;;;;;-3.12;50.25;100218.41;4977349;28;20568;-68
2021/12/27 10:06:51;;;;;;;15.63;6.78;;;;;;;-3.16;50.67;100220.09;4976692;28;20042;-69
2021/12/27 10:09:17;;;;;;;18.75;8.32;;;;;;;-3.08;50.48;100220.13;4970718;28;20045;-70
2021/12/27 10:11:46;;;;;;;22.52;8.32;;;;;;;-2.75;49.94;100226.28;4954167;28;20778;-68
2021/12/27 10:14:19;;;;;;;20.40;8.48;;;;;;;-2.72;50.01;100214.34;4986406;28;20040;-70
2021/12/27 10:17:08;;;;;;;17.77;8.05;;;;;;;-2.41;49.56;100222.13;4985215;28;20470;-69
2021/12/27 10:19:36;;;;;;;26.30;9.85;;;;;;;-2.36;49.43;100217.88;4985830;28;20069;-70
2021/12/27 10:22:03;;;;;;;20.20;9.48;;;;;;;-2.57;49.93;100211.00;4967488;28;20132;-69
2021/12/27 10:24:30;;;;;;;22.20;8.88;;;;;;;-2.28;49.41;100197.44;4985030;28;20583;-70
2021/12/27 10:26:59;;;;;;;19.90;8.50;;;;;;;-2.55;50.11;100193.09;4983741;28;20045;-70
2021/12/27 10:29:27;;;;;;;19.13;8.10;;;;;;;-2.52;50.19;100185.41;4987599;28;20117;-70
2021/12/27 10:31:57;;;;;;;18.08;9.75;;;;;;;-2.18;49.87;100188.06;4988058;28;20042;-70
2021/12/27 10:34:26;;;;;;;23.55;9.52;;;;;;;-2.07;49.28;100182.13;4969734;28;20124;-70
2021/12/27 10:37:05;;;;;;;23.02;9.13;;;;;;;-2.12;49.43;100182.94;4984445;28;20452;-70
2021/12/27 10:39:47;;;;;;;21.33;9.65;;;;;;;-2.10;49.44;100174.41;4983576;28;20035;-71
2021/12/27 10:42:19;;;;;;;19.40;9.57;;;;;;;-2.53;50.79;100178.63;4976249;28;20038;-71
2021/12/27 10:44:46;;;;;;;19.77;9.55;;;;;;;-2.68;51.33;100181.97;4983508;28;20694;-70
2021/12/27 10:47:25;;;;;;;19.75;9.73;;;;;;;-2.22;50.37;100179.53;4987363;28;20086;-71
2021/12/27 10:49:52;;;;;;;19.20;7.57;;;;;;;-2.37;50.70;100179.50;4983410;28;20041;-70
2021/12/27 10:52:17;;;;;;;26.00;11.98;;;;;;;-2.53;51.51;100182.03;4985140;28;20408;-70
2021/12/27 10:54:45;;;;;;;28.00;9.80;;;;;;;-2.30;51.39;100174.38;4982534;28;20105;-71
2021/12/27 10:57:15;;;;;;;24.60;10.20;;;;;;;-2.74;52.14;100172.56;4985872;28;20473;-70
2021/12/27 10:59:41;;;;;;;24.45;10.75;;;;;;;-2.29;51.13;100171.00;4987559;28;20314;-71
2021/12/27 11:02:11;;;;;;;30.27;11.55;;;;;;;-2.41;51.57;100163.28;4983857;28;20096;-71
2021/12/27 11:04:37;;;;;;;20.42;9.50;;;;;;;-2.19;50.65;100150.50;4956417;28;20417;-71
2021/12/27 11:07:06;;;;;;;25.00;11.07;;;;;;;-2.21;51.47;100153.06;4977012;28;20045;-71
2021/12/27 11:09:34;;;;;;;23.05;10.85;;;;;;;-2.09;51.19;100157.34;4973123;28;20764;-71
2021/12/27 11:12:00;;;;;;;21.75;10.10;;;;;;;-2.14;51.47;100156.50;4962716;28;20143;-71
2021/12/27 11:14:26;;;;;;;31.63;10.68;;;;;;;-1.95;51.26;100154.81;4973781;28;20041;-72
2021/12/27 11:16:54;;;;;;;31.95;11.65;;;;;;;-1.74;50.64;100159.91;4974929;28;20072;-71
2021/12/27 11:19:20;;;;;;;24.90;10.13;;;;;;;-1.71;50.65;100169.28;4947606;28;20100;-71
2021/12/27 11:21:48;;;;;;;24.40;12.07;;;;;;;-2.12;51.48;100178.69;4975978;28;20065;-71
2021/12/27 11:24:13;;;;;;;23.52;10.20;;;;;;;-2.04;51.60;100168.47;4975965;28;20834;-71
2021/12/27 11:26:41;;;;;;;25.23;11.52;;;;;;;-2.14;51.62;100154.78;4978051;28;20459;-71